createdAt,value
2024-04-30T00:02:42.339Z,16.09
2024-04-30T00:07:47.755Z,15.47
2024-04-30T00:12:55.717Z,15.99
2024-04-30T00:18:00.997Z,15.90
2024-04-30T00:23:06.394Z,13.99
2024-04-30T00:28:16.160Z,15.83
2024-04-30T00:33:21.314Z,15.30
2024-04-30T00:38:26.490Z,14.70
2024-04-30T00:43:34.352Z,15.33
2024-04-30T00:48:41.765Z,15.31
2024-04-30T00:53:47.014Z,14.44
2024-04-30T00:58:54.758Z,15.23
2024-04-30T01:03:59.926Z,15.17
2024-04-30T01:09:05.128Z,15.18
2024-04-30T01:14:12.874Z,15.00
2024-04-30T01:19:18.078Z,14.47
2024-04-30T01:24:25.800Z,14.40
2024-04-30T01:29:30.999Z,15.04
2024-04-30T01:34:38.855Z,14.99
2024-04-30T01:39:46.766Z,14.66
2024-04-30T01:44:51.956Z,14.93
2024-04-30T01:49:57.294Z,14.57
2024-04-30T01:55:05.247Z,14.94
2024-04-30T02:00:11.344Z,14.54
2024-04-30T02:05:21.076Z,14.58
2024-04-30T02:10:32.930Z,14.47
2024-04-30T02:15:38.187Z,14.36
2024-04-30T02:20:43.497Z,13.88
2024-04-30T02:25:51.307Z,12.32
2024-04-30T02:31:12.760Z,14.26
2024-04-30T02:36:17.937Z,14.11
2024-04-30T02:41:25.797Z,13.01
2024-04-30T02:46:31.027Z,14.15
2024-04-30T02:51:36.374Z,13.65
2024-04-30T02:56:44.139Z,13.12
2024-04-30T03:01:49.351Z,13.83
2024-04-30T03:06:54.548Z,13.66
2024-04-30T03:12:02.382Z,13.47
2024-04-30T03:17:07.999Z,13.83
2024-04-30T03:22:13.268Z,13.16
2024-04-30T03:27:21.061Z,13.27
2024-04-30T03:32:26.323Z,12.86
2024-04-30T03:37:31.653Z,12.87
2024-04-30T03:42:39.707Z,13.64
2024-04-30T03:47:45.524Z,13.15
2024-04-30T03:52:50.717Z,12.60
2024-04-30T03:57:58.496Z,13.50
2024-04-30T04:03:03.730Z,13.39
2024-04-30T04:08:11.094Z,12.97
2024-04-30T04:13:34.744Z,12.87
2024-04-30T04:18:39.975Z,12.62
2024-04-30T04:23:45.377Z,12.28
2024-04-30T04:28:53.145Z,12.83
2024-04-30T04:33:58.418Z,13.07
2024-04-30T04:39:03.728Z,12.43
2024-04-30T04:44:11.599Z,13.05
2024-04-30T04:49:16.851Z,12.76
2024-04-30T04:54:22.075Z,12.52
2024-04-30T04:59:29.901Z,12.98
2024-04-30T05:04:35.025Z,12.82
2024-04-30T05:09:40.173Z,12.34
2024-04-30T05:14:48.651Z,12.69
2024-04-30T05:19:54.624Z,12.74
2024-04-30T05:24:59.758Z,13.02
2024-04-30T05:30:08.232Z,12.42
2024-04-30T05:35:14.209Z,12.70
2024-04-30T05:40:19.423Z,13.36
2024-04-30T05:45:27.258Z,13.50
2024-04-30T05:50:32.495Z,13.42
2024-04-30T05:55:37.894Z,13.59
2024-04-30T06:00:45.924Z,13.49
2024-04-30T06:05:51.095Z,13.77
2024-04-30T06:10:56.307Z,13.83
2024-04-30T06:16:04.357Z,13.67
2024-04-30T06:21:12.043Z,13.22
2024-04-30T06:26:17.515Z,13.41
2024-04-30T06:31:25.399Z,14.24
2024-04-30T06:36:30.780Z,13.90
2024-04-30T06:41:35.974Z,13.94
2024-04-30T06:46:43.822Z,14.60
2024-04-30T06:51:49.043Z,14.41
2024-04-30T06:56:54.214Z,14.85
2024-04-30T07:02:02.138Z,14.47
2024-04-30T07:07:07.759Z,14.69
2024-04-30T07:12:12.993Z,15.24
2024-04-30T07:17:22.398Z,15.45
2024-04-30T07:22:27.663Z,14.99
2024-04-30T07:27:32.880Z,15.69
2024-04-30T07:32:41.270Z,15.93
2024-04-30T07:37:46.929Z,15.81
2024-04-30T07:42:52.190Z,15.56
2024-04-30T07:48:01.528Z,16.32
2024-04-30T07:53:07.071Z,16.56
2024-04-30T07:58:37.590Z,16.90
2024-04-30T08:03:45.554Z,16.06
2024-04-30T08:08:50.955Z,16.25
2024-04-30T08:13:56.224Z,16.48
2024-04-30T08:19:04.218Z,16.71
2024-04-30T08:24:11.405Z,17.65
2024-04-30T08:29:16.789Z,17.13
2024-04-30T08:34:25.354Z,17.92
2024-04-30T08:39:30.608Z,17.95
2024-04-30T08:44:37.106Z,18.39
2024-04-30T08:49:49.161Z,18.49
2024-04-30T08:54:59.438Z,18.78
2024-04-30T09:00:04.687Z,18.97
2024-04-30T09:05:13.831Z,17.42
2024-04-30T09:10:19.128Z,19.42
2024-04-30T09:15:24.669Z,19.47
2024-04-30T09:20:32.493Z,19.94
2024-04-30T09:25:39.455Z,19.61
2024-04-30T09:30:45.450Z,20.37
2024-04-30T09:36:06.050Z,20.07
2024-04-30T09:41:14.552Z,20.92
2024-04-30T09:46:20.003Z,20.45
2024-04-30T09:51:32.325Z,20.65
2024-04-30T09:56:37.553Z,20.02
2024-04-30T10:01:43.775Z,21.62
2024-04-30T10:06:52.966Z,21.99
2024-04-30T10:11:58.526Z,20.61
2024-04-30T10:17:05.752Z,22.13
2024-04-30T10:22:18.781Z,22.62
2024-04-30T10:27:25.686Z,22.56
2024-04-30T10:32:31.716Z,22.88
2024-04-30T10:37:39.877Z,23.26
2024-04-30T10:42:52.264Z,23.28
2024-04-30T10:47:57.644Z,23.60
2024-04-30T10:53:06.410Z,23.95
2024-04-30T10:58:17.673Z,22.84
2024-04-30T11:03:25.145Z,24.21
2024-04-30T11:08:35.561Z,24.19
2024-04-30T11:13:41.163Z,24.69
2024-04-30T11:18:46.642Z,24.88
2024-04-30T11:23:55.098Z,24.84
2024-04-30T11:29:15.694Z,24.79
2024-04-30T11:34:26.911Z,25.32
2024-04-30T11:39:34.780Z,25.27
2024-04-30T11:44:39.932Z,25.65
2024-04-30T11:49:45.407Z,26.01
2024-04-30T11:54:53.221Z,25.92
2024-04-30T11:59:58.342Z,25.95
2024-04-30T12:05:04.449Z,26.54
2024-04-30T12:10:12.448Z,25.81
2024-04-30T12:15:17.881Z,26.84
2024-04-30T12:20:23.058Z,25.67
2024-04-30T12:25:30.965Z,27.34
2024-04-30T12:30:36.117Z,27.36
2024-04-30T12:35:41.614Z,27.60
2024-04-30T12:40:49.484Z,27.84
2024-04-30T12:45:54.705Z,27.87
2024-04-30T12:51:00.873Z,27.98
2024-04-30T12:56:08.889Z,28.36
2024-04-30T13:01:20.083Z,28.59
2024-04-30T13:06:26.907Z,28.25
2024-04-30T13:11:34.888Z,28.70
2024-04-30T13:16:43.307Z,28.83
2024-04-30T13:21:50.553Z,27.75
2024-04-30T13:26:58.322Z,28.56
2024-04-30T13:32:03.511Z,28.85
2024-04-30T13:37:09.148Z,28.93
2024-04-30T13:42:17.108Z,29.09
2024-04-30T13:47:22.336Z,28.88
2024-04-30T13:52:27.554Z,29.38
2024-04-30T13:57:35.422Z,29.59
2024-04-30T14:02:41.503Z,29.34
2024-04-30T14:07:48.188Z,29.68
2024-04-30T14:12:56.058Z,29.96
2024-04-30T14:18:02.485Z,29.66
2024-04-30T14:23:07.802Z,30.20
2024-04-30T14:28:18.484Z,30.45
2024-04-30T14:33:23.892Z,30.43
2024-04-30T14:38:29.088Z,30.46
2024-04-30T14:43:37.643Z,30.85
2024-04-30T14:48:43.316Z,30.69
2024-04-30T14:53:48.668Z,30.90
2024-04-30T14:58:58.663Z,31.28
2024-04-30T15:04:03.932Z,29.78
2024-04-30T15:09:11.407Z,31.32
2024-04-30T15:14:19.396Z,31.39
2024-04-30T15:19:24.576Z,31.35
2024-04-30T15:24:29.947Z,30.57
2024-04-30T15:29:37.712Z,30.83
2024-04-30T15:34:43.502Z,30.87
2024-04-30T15:39:48.954Z,30.82
2024-04-30T15:44:56.712Z,29.43
2024-04-30T15:50:01.993Z,30.43
2024-04-30T15:55:07.992Z,30.54
2024-04-30T16:00:16.700Z,30.66
2024-04-30T16:05:23.063Z,30.58
2024-04-30T16:10:28.283Z,30.17
2024-04-30T16:15:36.157Z,30.49
2024-04-30T16:20:42.238Z,30.24
2024-04-30T16:25:47.484Z,29.77
2024-04-30T16:30:55.359Z,30.21
2024-04-30T16:36:01.726Z,29.70
2024-04-30T16:41:07.574Z,29.71
2024-04-30T16:46:15.554Z,29.16
2024-04-30T16:51:20.993Z,29.38
2024-04-30T16:56:27.090Z,29.02
2024-04-30T17:01:35.045Z,28.61
2024-04-30T17:06:47.571Z,29.24
2024-04-30T17:11:52.744Z,29.02
2024-04-30T17:17:00.614Z,28.46
2024-04-30T17:22:06.149Z,28.83
2024-04-30T17:27:11.510Z,28.70
2024-04-30T17:32:19.320Z,28.40
2024-04-30T17:37:24.471Z,28.45
2024-04-30T17:42:29.744Z,28.31
2024-04-30T17:47:37.578Z,28.28
2024-04-30T17:52:42.760Z,27.45
2024-04-30T17:57:47.931Z,28.02
2024-04-30T18:02:56.203Z,27.68
2024-04-30T18:08:17.157Z,27.31
2024-04-30T18:13:22.575Z,27.64
2024-04-30T18:18:30.463Z,27.40
2024-04-30T18:23:35.816Z,27.24
2024-04-30T18:28:46.013Z,26.56
2024-04-30T18:33:55.618Z,25.96
2024-04-30T18:39:01.673Z,27.21
2024-04-30T18:44:06.950Z,26.06
2024-04-30T18:49:16.044Z,26.65
2024-04-30T18:54:22.656Z,24.54
2024-04-30T18:59:28.000Z,25.97
2024-04-30T19:04:41.024Z,26.30
2024-04-30T19:09:48.489Z,25.80
2024-04-30T19:14:54.010Z,25.72
2024-04-30T19:20:01.847Z,25.91
2024-04-30T19:25:08.411Z,25.62
2024-04-30T19:30:14.589Z,25.04
2024-04-30T19:35:22.428Z,25.33
2024-04-30T19:40:27.720Z,24.43
2024-04-30T19:45:32.987Z,24.98
2024-04-30T19:50:40.799Z,24.66
2024-04-30T19:55:46.099Z,24.32
2024-04-30T20:00:51.440Z,24.35
2024-04-30T20:05:59.339Z,24.02
2024-04-30T20:11:04.538Z,23.90
2024-04-30T20:16:10.189Z,23.91
2024-04-30T20:21:18.615Z,23.48
2024-04-30T20:26:24.077Z,23.23
2024-04-30T20:31:29.289Z,23.12
2024-04-30T20:43:22.070Z,23.14
2024-04-30T20:48:27.480Z,22.65
2024-04-30T20:53:32.942Z,22.63
2024-04-30T20:58:43.647Z,22.08
2024-04-30T21:03:52.986Z,22.29
2024-04-30T21:08:58.433Z,21.94
2024-04-30T21:14:06.317Z,22.04
2024-04-30T21:19:11.816Z,21.57
2024-04-30T21:24:17.330Z,21.80
2024-04-30T21:29:25.714Z,21.75
2024-04-30T21:34:31.426Z,20.88
2024-04-30T21:39:36.813Z,21.40
2024-04-30T21:44:44.869Z,19.29
2024-04-30T21:49:50.294Z,21.16
2024-04-30T21:54:55.696Z,20.86
2024-04-30T22:00:03.695Z,20.80
2024-04-30T22:05:11.192Z,19.79
2024-04-30T22:10:16.574Z,20.16
2024-04-30T22:15:24.422Z,20.57
2024-04-30T22:20:30.849Z,20.19
2024-04-30T22:25:36.100Z,19.73
2024-04-30T22:30:43.912Z,19.13
2024-04-30T22:35:49.131Z,19.83
2024-04-30T22:40:56.110Z,17.90
2024-04-30T22:46:04.916Z,19.53
2024-04-30T22:51:10.358Z,19.26
2024-04-30T22:56:15.554Z,19.07
2024-04-30T23:01:23.461Z,19.05
2024-04-30T23:06:28.716Z,18.33
2024-04-30T23:11:33.909Z,18.93
2024-04-30T23:16:41.712Z,18.51
2024-04-30T23:21:47.582Z,18.60
2024-04-30T23:26:52.745Z,17.92
2024-04-30T23:32:00.619Z,18.18
2024-04-30T23:37:08.051Z,18.38
2024-04-30T23:42:21.005Z,18.32
2024-04-30T23:47:31.283Z,18.18
2024-04-30T23:52:36.413Z,18.11
2024-04-30T23:57:41.778Z,15.73
